sensor_id;sensor_type;location;lat;lon;timestamp;P1;durP1;ratioP1;P2;durP2;ratioP2
4597;SDS011;62772;48.646;8.906;2024-01-07T00:04:54;28.50;;;13.87;;
4597;SDS011;62772;48.646;8.906;2024-01-07T00:09:54;27.37;;;14.20;;
4597;SDS011;62772;48.646;8.906;2024-01-07T00:14:55;25.93;;;13.40;;
4597;SDS011;62772;48.646;8.906;2024-01-07T00:19:55;31.50;;;14.20;;
4597;SDS011;62772;48.646;8.906;2024-01-07T00:24:55;29.87;;;13.77;;
4597;SDS011;62772;48.646;8.906;2024-01-07T00:29:56;33.00;;;13.87;;
4597;SDS011;62772;48.646;8.906;2024-01-07T00:34:56;35.83;;;13.63;;
4597;SDS011;62772;48.646;8.906;2024-01-07T00:39:57;28.83;;;12.67;;
4597;SDS011;62772;48.646;8.906;2024-01-07T00:44:57;30.60;;;12.53;;
4597;SDS011;62772;48.646;8.906;2024-01-07T00:49:58;30.53;;;11.63;;
4597;SDS011;62772;48.646;8.906;2024-01-07T00:54:58;24.37;;;10.97;;
4597;SDS011;62772;48.646;8.906;2024-01-07T00:59:59;29.27;;;11.53;;
4597;SDS011;62772;48.646;8.906;2024-01-07T01:05:00;31.30;;;12.00;;
4597;SDS011;62772;48.646;8.906;2024-01-07T01:10:01;27.50;;;11.23;;
4597;SDS011;62772;48.646;8.906;2024-01-07T01:15:01;38.43;;;11.80;;
4597;SDS011;62772;48.646;8.906;2024-01-07T01:20:02;28.37;;;11.30;;
4597;SDS011;62772;48.646;8.906;2024-01-07T01:25:03;30.50;;;12.07;;
4597;SDS011;62772;48.646;8.906;2024-01-07T01:30:04;33.53;;;11.77;;
4597;SDS011;62772;48.646;8.906;2024-01-07T01:35:05;41.53;;;10.20;;
4597;SDS011;62772;48.646;8.906;2024-01-07T01:40:06;55.33;;;11.33;;
4597;SDS011;62772;48.646;8.906;2024-01-07T01:45:07;34.97;;;11.80;;
4597;SDS011;62772;48.646;8.906;2024-01-07T01:50:08;35.30;;;11.50;;
4597;SDS011;62772;48.646;8.906;2024-01-07T01:55:09;37.63;;;11.73;;
4597;SDS011;62772;48.646;8.906;2024-01-07T02:00:10;40.40;;;11.57;;
4597;SDS011;62772;48.646;8.906;2024-01-07T02:05:10;34.23;;;11.30;;
4597;SDS011;62772;48.646;8.906;2024-01-07T02:10:13;30.40;;;11.27;;
4597;SDS011;62772;48.646;8.906;2024-01-07T02:15:14;39.23;;;11.30;;
4597;SDS011;62772;48.646;8.906;2024-01-07T02:20:15;33.27;;;11.87;;
4597;SDS011;62772;48.646;8.906;2024-01-07T02:25:16;32.33;;;9.70;;
4597;SDS011;62772;48.646;8.906;2024-01-07T02:30:16;34.47;;;10.87;;
4597;SDS011;62772;48.646;8.906;2024-01-07T02:35:17;37.50;;;11.50;;
4597;SDS011;62772;48.646;8.906;2024-01-07T02:40:18;27.47;;;10.50;;
4597;SDS011;62772;48.646;8.906;2024-01-07T02:45:19;40.20;;;11.03;;
4597;SDS011;62772;48.646;8.906;2024-01-07T02:50:19;70.83;;;12.07;;
4597;SDS011;62772;48.646;8.906;2024-01-07T02:55:20;39.80;;;12.33;;
4597;SDS011;62772;48.646;8.906;2024-01-07T03:00:20;67.00;;;12.03;;
4597;SDS011;62772;48.646;8.906;2024-01-07T03:05:21;34.80;;;12.53;;
4597;SDS011;62772;48.646;8.906;2024-01-07T03:10:21;48.63;;;11.83;;
4597;SDS011;62772;48.646;8.906;2024-01-07T03:15:21;59.03;;;13.73;;
4597;SDS011;62772;48.646;8.906;2024-01-07T03:20:22;38.40;;;12.87;;
4597;SDS011;62772;48.646;8.906;2024-01-07T03:25:22;52.33;;;13.03;;
4597;SDS011;62772;48.646;8.906;2024-01-07T03:30:23;95.93;;;15.23;;
4597;SDS011;62772;48.646;8.906;2024-01-07T03:35:23;41.33;;;15.20;;
4597;SDS011;62772;48.646;8.906;2024-01-07T03:40:24;77.13;;;16.03;;
4597;SDS011;62772;48.646;8.906;2024-01-07T03:45:24;59.13;;;15.97;;
4597;SDS011;62772;48.646;8.906;2024-01-07T03:50:26;45.50;;;16.10;;
4597;SDS011;62772;48.646;8.906;2024-01-07T03:55:26;44.37;;;15.37;;
4597;SDS011;62772;48.646;8.906;2024-01-07T04:00:27;46.77;;;15.87;;
4597;SDS011;62772;48.646;8.906;2024-01-07T04:05:27;43.73;;;17.00;;
4597;SDS011;62772;48.646;8.906;2024-01-07T04:10:29;43.63;;;18.23;;
4597;SDS011;62772;48.646;8.906;2024-01-07T04:15:29;43.63;;;17.27;;
4597;SDS011;62772;48.646;8.906;2024-01-07T04:20:30;41.00;;;15.10;;
4597;SDS011;62772;48.646;8.906;2024-01-07T04:25:31;44.60;;;15.87;;
4597;SDS011;62772;48.646;8.906;2024-01-07T04:30:31;62.77;;;19.63;;
4597;SDS011;62772;48.646;8.906;2024-01-07T04:35:32;44.90;;;15.77;;
4597;SDS011;62772;48.646;8.906;2024-01-07T04:40:32;41.23;;;17.00;;
4597;SDS011;62772;48.646;8.906;2024-01-07T04:45:32;42.03;;;18.20;;
4597;SDS011;62772;48.646;8.906;2024-01-07T04:50:33;41.27;;;16.90;;
4597;SDS011;62772;48.646;8.906;2024-01-07T04:55:33;47.03;;;20.23;;
4597;SDS011;62772;48.646;8.906;2024-01-07T05:00:34;40.50;;;17.60;;
4597;SDS011;62772;48.646;8.906;2024-01-07T05:05:35;39.30;;;17.30;;
4597;SDS011;62772;48.646;8.906;2024-01-07T05:10:36;38.23;;;16.90;;
4597;SDS011;62772;48.646;8.906;2024-01-07T05:15:37;38.47;;;17.87;;
4597;SDS011;62772;48.646;8.906;2024-01-07T05:20:37;40.57;;;17.87;;
4597;SDS011;62772;48.646;8.906;2024-01-07T05:25:38;35.57;;;16.63;;
4597;SDS011;62772;48.646;8.906;2024-01-07T05:30:38;31.57;;;15.73;;
4597;SDS011;62772;48.646;8.906;2024-01-07T05:35:39;34.03;;;16.40;;
4597;SDS011;62772;48.646;8.906;2024-01-07T05:40:39;33.00;;;16.23;;
4597;SDS011;62772;48.646;8.906;2024-01-07T05:45:40;31.13;;;14.50;;
4597;SDS011;62772;48.646;8.906;2024-01-07T05:50:40;33.00;;;14.93;;
4597;SDS011;62772;48.646;8.906;2024-01-07T05:55:41;33.57;;;15.33;;
4597;SDS011;62772;48.646;8.906;2024-01-07T06:00:41;28.93;;;14.20;;
4597;SDS011;62772;48.646;8.906;2024-01-07T06:05:42;25.60;;;14.00;;
4597;SDS011;62772;48.646;8.906;2024-01-07T06:10:43;29.23;;;14.53;;
4597;SDS011;62772;48.646;8.906;2024-01-07T06:15:43;25.80;;;13.73;;
4597;SDS011;62772;48.646;8.906;2024-01-07T06:20:44;28.13;;;14.10;;
4597;SDS011;62772;48.646;8.906;2024-01-07T06:25:44;23.83;;;13.37;;
4597;SDS011;62772;48.646;8.906;2024-01-07T06:30:47;25.57;;;12.70;;
4597;SDS011;62772;48.646;8.906;2024-01-07T06:35:47;24.43;;;12.97;;
4597;SDS011;62772;48.646;8.906;2024-01-07T06:40:48;22.53;;;11.93;;
4597;SDS011;62772;48.646;8.906;2024-01-07T06:45:48;23.27;;;12.33;;
4597;SDS011;62772;48.646;8.906;2024-01-07T06:50:49;22.47;;;11.70;;
4597;SDS011;62772;48.646;8.906;2024-01-07T06:55:49;25.10;;;12.90;;
4597;SDS011;62772;48.646;8.906;2024-01-07T07:00:50;25.10;;;14.07;;
4597;SDS011;62772;48.646;8.906;2024-01-07T07:05:50;25.63;;;13.10;;
4597;SDS011;62772;48.646;8.906;2024-01-07T07:10:51;30.30;;;16.00;;
4597;SDS011;62772;48.646;8.906;2024-01-07T07:15:51;29.67;;;14.57;;
4597;SDS011;62772;48.646;8.906;2024-01-07T07:20:52;25.83;;;12.53;;
4597;SDS011;62772;48.646;8.906;2024-01-07T07:25:52;30.20;;;15.40;;
4597;SDS011;62772;48.646;8.906;2024-01-07T07:30:53;28.13;;;14.67;;
4597;SDS011;62772;48.646;8.906;2024-01-07T07:35:53;27.20;;;13.90;;
4597;SDS011;62772;48.646;8.906;2024-01-07T07:40:54;28.20;;;14.30;;
4597;SDS011;62772;48.646;8.906;2024-01-07T07:45:54;33.67;;;15.60;;
4597;SDS011;62772;48.646;8.906;2024-01-07T07:50:55;33.10;;;18.40;;
4597;SDS011;62772;48.646;8.906;2024-01-07T07:55:55;32.80;;;18.47;;
4597;SDS011;62772;48.646;8.906;2024-01-07T08:00:55;30.17;;;15.43;;
4597;SDS011;62772;48.646;8.906;2024-01-07T08:05:56;28.70;;;14.50;;
4597;SDS011;62772;48.646;8.906;2024-01-07T08:10:56;31.90;;;16.77;;
4597;SDS011;62772;48.646;8.906;2024-01-07T08:15:57;35.67;;;18.97;;
4597;SDS011;62772;48.646;8.906;2024-01-07T08:20:57;28.97;;;15.97;;
4597;SDS011;62772;48.646;8.906;2024-01-07T08:25:58;26.80;;;15.17;;
4597;SDS011;62772;48.646;8.906;2024-01-07T08:30:59;32.07;;;15.40;;
4597;SDS011;62772;48.646;8.906;2024-01-07T08:35:59;28.43;;;14.90;;
4597;SDS011;62772;48.646;8.906;2024-01-07T08:41:00;34.33;;;18.13;;
4597;SDS011;62772;48.646;8.906;2024-01-07T08:46:00;26.03;;;13.93;;
4597;SDS011;62772;48.646;8.906;2024-01-07T08:51:04;29.50;;;15.50;;
4597;SDS011;62772;48.646;8.906;2024-01-07T08:56:05;31.53;;;16.93;;
4597;SDS011;62772;48.646;8.906;2024-01-07T09:01:06;30.67;;;15.60;;
4597;SDS011;62772;48.646;8.906;2024-01-07T09:06:07;26.37;;;14.37;;
4597;SDS011;62772;48.646;8.906;2024-01-07T09:11:08;21.67;;;12.50;;
4597;SDS011;62772;48.646;8.906;2024-01-07T09:16:11;23.13;;;12.30;;
4597;SDS011;62772;48.646;8.906;2024-01-07T09:21:11;22.97;;;11.97;;
4597;SDS011;62772;48.646;8.906;2024-01-07T09:26:12;23.97;;;11.37;;
4597;SDS011;62772;48.646;8.906;2024-01-07T09:31:13;20.20;;;10.63;;
4597;SDS011;62772;48.646;8.906;2024-01-07T09:36:13;20.37;;;10.93;;
4597;SDS011;62772;48.646;8.906;2024-01-07T09:41:13;18.13;;;10.20;;
4597;SDS011;62772;48.646;8.906;2024-01-07T09:46:14;17.80;;;9.67;;
4597;SDS011;62772;48.646;8.906;2024-01-07T09:51:14;20.67;;;11.50;;
4597;SDS011;62772;48.646;8.906;2024-01-07T09:56:29;20.87;;;11.53;;
4597;SDS011;62772;48.646;8.906;2024-01-07T10:01:38;22.43;;;10.97;;
4597;SDS011;62772;48.646;8.906;2024-01-07T10:06:40;22.10;;;11.53;;
4597;SDS011;62772;48.646;8.906;2024-01-07T10:11:40;20.17;;;10.10;;
4597;SDS011;62772;48.646;8.906;2024-01-07T10:16:41;22.67;;;11.80;;
4597;SDS011;62772;48.646;8.906;2024-01-07T10:21:41;22.50;;;12.80;;
4597;SDS011;62772;48.646;8.906;2024-01-07T10:26:42;31.93;;;15.60;;
4597;SDS011;62772;48.646;8.906;2024-01-07T10:31:43;23.40;;;12.90;;
4597;SDS011;62772;48.646;8.906;2024-01-07T10:36:43;31.27;;;14.17;;
4597;SDS011;62772;48.646;8.906;2024-01-07T10:41:45;27.37;;;12.73;;
4597;SDS011;62772;48.646;8.906;2024-01-07T10:46:47;20.70;;;11.37;;
4597;SDS011;62772;48.646;8.906;2024-01-07T10:51:51;27.10;;;11.60;;
4597;SDS011;62772;48.646;8.906;2024-01-07T11:02:17;24.53;;;14.30;;
4597;SDS011;62772;48.646;8.906;2024-01-07T11:07:27;27.27;;;16.03;;
4597;SDS011;62772;48.646;8.906;2024-01-07T11:12:37;17.17;;;8.97;;
4597;SDS011;62772;48.646;8.906;2024-01-07T11:22:38;14.17;;;8.10;;
4597;SDS011;62772;48.646;8.906;2024-01-07T11:27:39;13.10;;;7.40;;
4597;SDS011;62772;48.646;8.906;2024-01-07T11:32:40;15.07;;;8.30;;
4597;SDS011;62772;48.646;8.906;2024-01-07T11:37:41;10.43;;;5.67;;
4597;SDS011;62772;48.646;8.906;2024-01-07T11:42:44;16.00;;;8.80;;
4597;SDS011;62772;48.646;8.906;2024-01-07T11:47:45;17.23;;;8.60;;
4597;SDS011;62772;48.646;8.906;2024-01-07T11:52:45;14.43;;;7.50;;
4597;SDS011;62772;48.646;8.906;2024-01-07T11:57:46;16.93;;;8.87;;
4597;SDS011;62772;48.646;8.906;2024-01-07T12:02:46;28.90;;;15.00;;
4597;SDS011;62772;48.646;8.906;2024-01-07T12:07:47;35.43;;;17.60;;
4597;SDS011;62772;48.646;8.906;2024-01-07T12:12:47;21.07;;;10.13;;
4597;SDS011;62772;48.646;8.906;2024-01-07T12:17:58;17.40;;;9.37;;
4597;SDS011;62772;48.646;8.906;2024-01-07T12:23:09;14.07;;;7.43;;
4597;SDS011;62772;48.646;8.906;2024-01-07T12:28:10;17.73;;;9.13;;
4597;SDS011;62772;48.646;8.906;2024-01-07T12:33:11;18.93;;;10.10;;
4597;SDS011;62772;48.646;8.906;2024-01-07T12:38:11;18.17;;;9.93;;
4597;SDS011;62772;48.646;8.906;2024-01-07T12:43:12;17.60;;;9.93;;
4597;SDS011;62772;48.646;8.906;2024-01-07T12:48:12;10.97;;;6.47;;
4597;SDS011;62772;48.646;8.906;2024-01-07T12:53:13;19.83;;;10.07;;
4597;SDS011;62772;48.646;8.906;2024-01-07T12:58:13;18.30;;;9.87;;
4597;SDS011;62772;48.646;8.906;2024-01-07T13:03:14;22.33;;;12.17;;
4597;SDS011;62772;48.646;8.906;2024-01-07T13:08:17;12.40;;;6.80;;
4597;SDS011;62772;48.646;8.906;2024-01-07T13:13:19;25.10;;;11.20;;
4597;SDS011;62772;48.646;8.906;2024-01-07T13:18:20;15.77;;;9.30;;
4597;SDS011;62772;48.646;8.906;2024-01-07T13:23:20;18.97;;;11.03;;
4597;SDS011;62772;48.646;8.906;2024-01-07T13:28:21;23.27;;;11.83;;
4597;SDS011;62772;48.646;8.906;2024-01-07T13:33:21;24.70;;;11.10;;
4597;SDS011;62772;48.646;8.906;2024-01-07T13:38:22;37.20;;;18.90;;
4597;SDS011;62772;48.646;8.906;2024-01-07T13:43:22;23.93;;;12.57;;
4597;SDS011;62772;48.646;8.906;2024-01-07T13:48:25;24.33;;;13.03;;
4597;SDS011;62772;48.646;8.906;2024-01-07T13:53:26;27.23;;;12.47;;
4597;SDS011;62772;48.646;8.906;2024-01-07T13:58:27;17.00;;;9.00;;
4597;SDS011;62772;48.646;8.906;2024-01-07T14:03:27;23.93;;;12.07;;
4597;SDS011;62772;48.646;8.906;2024-01-07T14:08:27;32.20;;;15.53;;
4597;SDS011;62772;48.646;8.906;2024-01-07T14:13:28;22.83;;;12.50;;
4597;SDS011;62772;48.646;8.906;2024-01-07T14:18:29;21.40;;;11.60;;
4597;SDS011;62772;48.646;8.906;2024-01-07T14:23:29;25.47;;;12.87;;
4597;SDS011;62772;48.646;8.906;2024-01-07T14:28:31;22.23;;;12.10;;
4597;SDS011;62772;48.646;8.906;2024-01-07T14:33:31;17.20;;;8.30;;
4597;SDS011;62772;48.646;8.906;2024-01-07T14:38:32;26.50;;;13.10;;
4597;SDS011;62772;48.646;8.906;2024-01-07T14:43:32;25.10;;;13.60;;
4597;SDS011;62772;48.646;8.906;2024-01-07T14:48:33;40.37;;;18.13;;
4597;SDS011;62772;48.646;8.906;2024-01-07T14:53:34;23.53;;;13.00;;
4597;SDS011;62772;48.646;8.906;2024-01-07T14:58:34;26.60;;;15.27;;
4597;SDS011;62772;48.646;8.906;2024-01-07T15:03:35;24.90;;;13.50;;
4597;SDS011;62772;48.646;8.906;2024-01-07T15:08:35;26.30;;;13.07;;
4597;SDS011;62772;48.646;8.906;2024-01-07T15:13:36;34.23;;;15.47;;
4597;SDS011;62772;48.646;8.906;2024-01-07T15:18:38;22.13;;;10.80;;
4597;SDS011;62772;48.646;8.906;2024-01-07T15:23:38;27.90;;;14.43;;
4597;SDS011;62772;48.646;8.906;2024-01-07T15:28:39;28.73;;;14.40;;
4597;SDS011;62772;48.646;8.906;2024-01-07T15:33:39;27.30;;;13.40;;
4597;SDS011;62772;48.646;8.906;2024-01-07T15:38:39;30.60;;;13.40;;
4597;SDS011;62772;48.646;8.906;2024-01-07T15:43:40;23.27;;;12.70;;
4597;SDS011;62772;48.646;8.906;2024-01-07T15:48:40;29.83;;;14.43;;
4597;SDS011;62772;48.646;8.906;2024-01-07T15:53:41;35.80;;;18.17;;
4597;SDS011;62772;48.646;8.906;2024-01-07T15:58:41;26.87;;;10.97;;
4597;SDS011;62772;48.646;8.906;2024-01-07T16:03:42;33.53;;;16.00;;
4597;SDS011;62772;48.646;8.906;2024-01-07T16:08:42;37.93;;;17.47;;
4597;SDS011;62772;48.646;8.906;2024-01-07T16:13:43;32.90;;;16.83;;
4597;SDS011;62772;48.646;8.906;2024-01-07T16:18:43;36.80;;;18.60;;
4597;SDS011;62772;48.646;8.906;2024-01-07T16:23:44;29.13;;;15.13;;
4597;SDS011;62772;48.646;8.906;2024-01-07T16:28:45;32.30;;;16.13;;
4597;SDS011;62772;48.646;8.906;2024-01-07T16:33:46;31.00;;;16.07;;
4597;SDS011;62772;48.646;8.906;2024-01-07T16:38:46;25.73;;;13.30;;
4597;SDS011;62772;48.646;8.906;2024-01-07T16:43:47;30.27;;;16.20;;
4597;SDS011;62772;48.646;8.906;2024-01-07T16:48:48;20.53;;;10.20;;
4597;SDS011;62772;48.646;8.906;2024-01-07T16:53:50;31.63;;;15.43;;
4597;SDS011;62772;48.646;8.906;2024-01-07T16:58:50;22.00;;;10.33;;
4597;SDS011;62772;48.646;8.906;2024-01-07T17:03:51;27.93;;;13.90;;
4597;SDS011;62772;48.646;8.906;2024-01-07T17:08:56;22.13;;;11.73;;
4597;SDS011;62772;48.646;8.906;2024-01-07T17:13:57;23.70;;;11.03;;
4597;SDS011;62772;48.646;8.906;2024-01-07T17:18:58;21.53;;;10.70;;
4597;SDS011;62772;48.646;8.906;2024-01-07T17:23:58;23.10;;;10.23;;
4597;SDS011;62772;48.646;8.906;2024-01-07T17:28:59;15.50;;;8.63;;
4597;SDS011;62772;48.646;8.906;2024-01-07T17:33:59;26.50;;;13.10;;
4597;SDS011;62772;48.646;8.906;2024-01-07T17:39:01;28.67;;;12.13;;
4597;SDS011;62772;48.646;8.906;2024-01-07T17:44:03;15.30;;;8.23;;
4597;SDS011;62772;48.646;8.906;2024-01-07T17:49:05;24.13;;;11.30;;
4597;SDS011;62772;48.646;8.906;2024-01-07T17:54:05;31.03;;;13.90;;
4597;SDS011;62772;48.646;8.906;2024-01-07T17:59:06;23.33;;;11.87;;
4597;SDS011;62772;48.646;8.906;2024-01-07T18:04:08;12.17;;;6.90;;
4597;SDS011;62772;48.646;8.906;2024-01-07T18:09:08;26.67;;;13.40;;
4597;SDS011;62772;48.646;8.906;2024-01-07T18:14:10;30.37;;;15.43;;
4597;SDS011;62772;48.646;8.906;2024-01-07T18:19:12;32.87;;;12.40;;
4597;SDS011;62772;48.646;8.906;2024-01-07T18:24:12;21.10;;;8.97;;
4597;SDS011;62772;48.646;8.906;2024-01-07T18:29:14;20.77;;;9.00;;
4597;SDS011;62772;48.646;8.906;2024-01-07T18:34:15;27.07;;;12.23;;
4597;SDS011;62772;48.646;8.906;2024-01-07T18:39:15;31.47;;;11.37;;
4597;SDS011;62772;48.646;8.906;2024-01-07T18:44:16;24.57;;;11.03;;
4597;SDS011;62772;48.646;8.906;2024-01-07T18:49:17;24.40;;;12.33;;
4597;SDS011;62772;48.646;8.906;2024-01-07T18:54:18;23.23;;;10.50;;
4597;SDS011;62772;48.646;8.906;2024-01-07T18:59:21;24.10;;;12.00;;
4597;SDS011;62772;48.646;8.906;2024-01-07T19:04:21;20.63;;;11.23;;
4597;SDS011;62772;48.646;8.906;2024-01-07T19:09:22;23.80;;;11.60;;
4597;SDS011;62772;48.646;8.906;2024-01-07T19:14:22;23.00;;;10.23;;
4597;SDS011;62772;48.646;8.906;2024-01-07T19:19:23;20.40;;;10.20;;
4597;SDS011;62772;48.646;8.906;2024-01-07T19:24:24;16.37;;;9.17;;
4597;SDS011;62772;48.646;8.906;2024-01-07T19:29:25;24.70;;;10.87;;
4597;SDS011;62772;48.646;8.906;2024-01-07T19:34:27;21.07;;;9.60;;
4597;SDS011;62772;48.646;8.906;2024-01-07T19:39:30;16.00;;;8.37;;
4597;SDS011;62772;48.646;8.906;2024-01-07T19:44:30;18.90;;;8.90;;
4597;SDS011;62772;48.646;8.906;2024-01-07T19:49:31;19.70;;;8.20;;
4597;SDS011;62772;48.646;8.906;2024-01-07T19:54:32;22.20;;;10.00;;
4597;SDS011;62772;48.646;8.906;2024-01-07T19:59:32;14.53;;;7.60;;
4597;SDS011;62772;48.646;8.906;2024-01-07T20:04:36;18.30;;;9.37;;
4597;SDS011;62772;48.646;8.906;2024-01-07T20:09:36;21.07;;;10.83;;
4597;SDS011;62772;48.646;8.906;2024-01-07T20:14:37;20.93;;;10.90;;
4597;SDS011;62772;48.646;8.906;2024-01-07T20:19:37;20.30;;;10.07;;
4597;SDS011;62772;48.646;8.906;2024-01-07T20:24:39;17.93;;;9.93;;
4597;SDS011;62772;48.646;8.906;2024-01-07T20:29:40;12.43;;;6.90;;
4597;SDS011;62772;48.646;8.906;2024-01-07T20:34:40;16.00;;;9.00;;
4597;SDS011;62772;48.646;8.906;2024-01-07T20:39:41;23.77;;;9.93;;
4597;SDS011;62772;48.646;8.906;2024-01-07T20:44:41;25.27;;;12.13;;
4597;SDS011;62772;48.646;8.906;2024-01-07T20:49:42;13.47;;;6.60;;
4597;SDS011;62772;48.646;8.906;2024-01-07T20:54:42;14.70;;;7.60;;
4597;SDS011;62772;48.646;8.906;2024-01-07T20:59:44;24.90;;;11.83;;
4597;SDS011;62772;48.646;8.906;2024-01-07T21:04:45;21.70;;;9.07;;
4597;SDS011;62772;48.646;8.906;2024-01-07T21:09:45;16.60;;;8.30;;
4597;SDS011;62772;48.646;8.906;2024-01-07T21:14:46;15.47;;;7.13;;
4597;SDS011;62772;48.646;8.906;2024-01-07T21:19:46;16.33;;;8.57;;
4597;SDS011;62772;48.646;8.906;2024-01-07T21:24:48;20.10;;;9.10;;
4597;SDS011;62772;48.646;8.906;2024-01-07T21:29:49;18.47;;;9.17;;
4597;SDS011;62772;48.646;8.906;2024-01-07T21:34:49;17.63;;;9.03;;
4597;SDS011;62772;48.646;8.906;2024-01-07T21:39:50;16.30;;;7.90;;
4597;SDS011;62772;48.646;8.906;2024-01-07T21:44:51;18.60;;;8.53;;
4597;SDS011;62772;48.646;8.906;2024-01-07T21:49:51;13.53;;;7.60;;
4597;SDS011;62772;48.646;8.906;2024-01-07T21:54:52;17.77;;;9.30;;
4597;SDS011;62772;48.646;8.906;2024-01-07T21:59:52;11.53;;;6.90;;
4597;SDS011;62772;48.646;8.906;2024-01-07T22:04:54;17.83;;;7.53;;
4597;SDS011;62772;48.646;8.906;2024-01-07T22:09:54;16.17;;;8.97;;
4597;SDS011;62772;48.646;8.906;2024-01-07T22:14:56;12.43;;;7.90;;
4597;SDS011;62772;48.646;8.906;2024-01-07T22:19:57;15.53;;;8.37;;
4597;SDS011;62772;48.646;8.906;2024-01-07T22:24:57;15.57;;;9.20;;
4597;SDS011;62772;48.646;8.906;2024-01-07T22:29:58;12.43;;;6.17;;
4597;SDS011;62772;48.646;8.906;2024-01-07T22:34:58;16.53;;;8.33;;
4597;SDS011;62772;48.646;8.906;2024-01-07T22:39:59;14.17;;;7.67;;
4597;SDS011;62772;48.646;8.906;2024-01-07T22:44:59;15.60;;;8.73;;
4597;SDS011;62772;48.646;8.906;2024-01-07T22:50:00;15.33;;;8.30;;
4597;SDS011;62772;48.646;8.906;2024-01-07T22:55:00;19.87;;;10.43;;
4597;SDS011;62772;48.646;8.906;2024-01-07T23:00:01;16.43;;;8.43;;
4597;SDS011;62772;48.646;8.906;2024-01-07T23:05:01;13.00;;;6.67;;
4597;SDS011;62772;48.646;8.906;2024-01-07T23:10:04;11.77;;;7.47;;
4597;SDS011;62772;48.646;8.906;2024-01-07T23:15:05;13.37;;;6.13;;
4597;SDS011;62772;48.646;8.906;2024-01-07T23:20:06;13.67;;;7.30;;
4597;SDS011;62772;48.646;8.906;2024-01-07T23:25:07;14.60;;;9.20;;
4597;SDS011;62772;48.646;8.906;2024-01-07T23:30:08;11.80;;;7.07;;
4597;SDS011;62772;48.646;8.906;2024-01-07T23:35:09;14.17;;;8.07;;
4597;SDS011;62772;48.646;8.906;2024-01-07T23:40:09;15.30;;;7.40;;
4597;SDS011;62772;48.646;8.906;2024-01-07T23:45:10;7.03;;;4.80;;
4597;SDS011;62772;48.646;8.906;2024-01-07T23:50:10;11.83;;;7.07;;
4597;SDS011;62772;48.646;8.906;2024-01-07T23:55:11;11.97;;;6.40;;
